Flight Track Log - Related Links

Times and Time Zones

All times are in EDT time to prevent confusion due to time zone crossing. See the CTL17 flight status page for this flight to view local times or setup timezone preferences in your user account.

Time Position Orientation Groundspeed Altitude Reporting Facility
EDT Latitude Longitude Course Direction KTS MPH feet Rate Location/Type
Wed 05:37:44 PM 42.1806 -83.6067 219° Southwest 145 167 2,200  Level Cleveland Center
Wed 05:38:45 PM 42.1406 -83.6244 198° South 149 171 2,800 397 Climbing Cleveland Center
Wed 05:39:45 PM 42.1014 -83.6086 163° South 167 192 3,000 49 Climbing Cleveland Center
Wed 05:40:47 PM 42.0647 -83.5733 144° Southeast 160 184 2,900  Descending Cleveland Center
Wed 05:41:42 PM 42.0475 -83.5219 114° Southeast 163 188 3,000 49 Climbing Cleveland Center
Wed 05:42:49 PM 42.0261 -83.4567 114° Southeast 167 192 3,000  Level Cleveland Center
Wed 05:43:50 PM 42.0106 -83.4058 112° Southeast 164 189 3,000  Level Cleveland Center
Wed 05:44:51 PM 41.9892 -83.3461 116° Southeast 163 188 3,000  Level Cleveland Center
Wed 05:45:46 PM 41.9778 -83.2953 107° East 161 185 3,000 155 Level Cleveland Center
Wed 05:46:47 PM 41.9606 -83.2389 112° Southeast 161 185 3,300 443 Climbing Cleveland Center
Wed 05:47:48 PM 41.9431 -83.1822 113° Southeast 158 182 3,900 541 Climbing Cleveland Center
Wed 05:48:49 PM 41.9297 -83.1286 108° East 156 180 4,400 469 Climbing Cleveland Center
Wed 05:49:56 PM 41.9122 -83.0664 111° Southeast 161 185 4,900 236 Climbing Cleveland Center
Wed 05:50:56 PM 41.8925 -83.0100 115° Southeast 174 200 4,900 61 Level Cleveland Center
Wed 05:51:35 PM 41.8786 -82.9761 119° Southeast 174 200 5,000 48 Climbing Cleveland Center
Wed 05:53:00 PM 41.8514 -82.8858 112° Southeast 173 199 5,000  Level Cleveland Center
Wed 05:53:54 PM 41.8378 -82.8322 109° East 171 197 5,000  Level Cleveland Center
Wed 05:54:56 PM 41.8203 -82.7758 113° Southeast 170 196 5,000  Level Cleveland Center
Wed 05:55:56 PM 41.8047 -82.7086 107° East 171 197 5,000  Level Cleveland Center
Wed 05:56:57 PM 41.7892 -82.6494 109° East 170 196 5,000  Level Cleveland Center
Wed 05:57:58 PM 41.7714 -82.5906 112° Southeast 169 194 5,000  Level Cleveland Center
Wed 05:58:59 PM 41.7536 -82.5317 112° Southeast 171 197 5,000  Level Cleveland Center
Wed 05:59:59 PM 41.7400 -82.4728 107° East 169 194 5,000  Level Cleveland Center
Wed 06:01:00 PM 41.7222 -82.4136 112° Southeast 168 193 5,000 -188 Level Cleveland Center
Wed 06:02:07 PM 41.7025 -82.3436 111° Southeast 171 197 4,600 -422 Descending Cleveland Center
Wed 06:03:08 PM 41.6867 -82.2819 109° East 184 212 4,100 -639 Descending Cleveland Center
Wed 06:04:09 PM 41.6669 -82.2203 113° Southeast 183 211 3,300 -689 Descending Cleveland Center
Wed 06:05:10 PM 41.6489 -82.1589 111° Southeast 180 207 2,700 -541 Descending Cleveland Center
Wed 06:06:11 PM 41.6311 -82.0944 110° East 178 205 2,200 -397 Descending Cleveland Center
Wed 06:07:11 PM 41.6089 -82.0328 116° Southeast 170 196 1,900 -226 Descending Cleveland Center
Wed 06:08:24 PM 41.5889 -81.9686 113° Southeast 161 185 1,700 -129 Descending Cleveland Center
Wed 06:09:31 PM 41.5644 -81.9069 118° Southeast 161 185 1,600 -49 Descending Cleveland Center
Wed 06:10:26 PM 41.5464 -81.8594 117° Southeast 160 184 1,600  Level Cleveland Center
Wed 06:11:20 PM 41.5344 -81.8147 110° East 149 171 1,600 -99 Level Cleveland Center
Wed 06:12:27 PM 41.5142 -81.7561 115° Southeast 148 170 1,400 -328 Descending Cleveland Center
Wed 06:13:28 PM 41.5061 -81.7117 104° East 109 125 900 -492 Descending Cleveland Center
Wed 06:15:00 PM 41.5175 -81.6833 110° East  Level Estimated

Login

Don't have an account? Register now (free) for customized features, flight alerts, and more!